Impacts TAF Board INFO
FOR SITUATIONAL AWARENESS. NOT TO BE USED FOR FLIGHT PLANNING PURPOSES.
IDs:

KATL - Atlanta/Hartsfield-J, GA, US

Issued at 0330 UTC 20 Jan 2018
Updated at 0525 UTC 20 Jan 2018
Potential Impact None Slight Moderate High
Time0452Z 20/06Z 20/07Z 20/08Z 20/09Z 20/10Z 20/11Z 20/12Z 20/13Z 20/14Z 20/15Z 20/16Z 20/17Z 20/18Z>>
Type OBS PRVL PRVL PRVL PRVL
  [TEMP]  
PRVL
  [TEMP]  
PRVL PRVL PRVL PRVL PRVL PRVL PRVL PRVL
VIS 10 >6 >6 >6 >6 >6 >6 >6 >6 >6 >6 >6 >6 >6
CIG -- -- -- -- --
  [35]  
--
  [35]  
35 35 35 35 35 35 35 40
Cover FEW SKC SKC SKC SCT
  [BKN]  
SCT
  [BKN]  
BKN BKN BKN BKN BKN BKN BKN BKN
FltCat VFR VFR VFR VFR VFR
  [VFR]  
VFR
  [VFR]  
VFR VFR VFR VFR VFR VFR VFR VFR
WX -- -- -- -- --
  [--]  
--
  [--]  
-- -- -- -- -- -- -- --
WDir 290 280 280 280 290
[290]
290
[290]
290 290 290 290 290 290 290 290
WSpd 5 4 4 4 4
  [4]  
4
  [4]  
5 5 5 5 5 5 5 6
WGst -- -- -- -- --
  [--]  
--
  [--]  
-- -- -- -- -- -- -- --

Raw TAF
KATL 200330Z 2004/2106 28004KT P6SM SKC
  FM200900 29004KT P6SM SCT040
  TEMPO 2009/2011 BKN035
  FM201100 29005KT P6SM BKN035
  FM201800 29006KT P6SM BKN040
  FM210300 25003KT P6SM SCT040 SCT080 SCT250


Raw METAR
KATL 200452Z 29005KT 10SM FEW250 04/M12 A3024 RMK AO2 SLP246 T00391122 401281033
KATL 200352Z 26003KT 10SM FEW250 03/M09 A3025 RMK AO2 SLP250 T00331094
KATL 200252Z 29004KT 10SM FEW250 06/M13 A3023 RMK AO2 SLP244 T00611133 51006

METAR Board
Radar Display
Forecast Discussion

FOR SITUATIONAL AWARENESS. NOT TO BE USED FOR FLIGHT PLANNING PURPOSES.